This is the latest recevied weather packets stored in our database for station/object KC2GYU. If no packets are shown the sender has not sent any weather packets the latest 10 day(s).
| Time | Temp. | Humidity | Pressure | Rain* | Wind** | Luminosity | Snow |
|---|---|---|---|---|---|---|---|
| 1777395775 | 16.67° C | 52% | 1021.7 hPa | 0 mm | - | 550 W/m² | - |
| 1777395465 | 16.67° C | 51% | 1021.7 hPa | 0 mm | - | 452 W/m² | - |
| 1777395162 | 16.67° C | 52% | 1021.7 hPa | 0 mm | - | 448 W/m² | - |
| 1777394859 | 16.11° C | 55% | 1021.7 hPa | 0 mm | - | 371 W/m² | - |
| 1777394555 | 16.67° C | 53% | 1021.9 hPa | 0 mm | - | 310 W/m² | - |
| 1777394252 | 16.67° C | 54% | 1022 hPa | 0 mm | - | 362 W/m² | - |
| 1777393948 | 16.67° C | 52% | 1022 hPa | 0 mm | - | 377 W/m² | - |
| 1777393647 | 16.67° C | 52% | 1022 hPa | 0 mm | - | 319 W/m² | - |
| 1777393343 | 16.67° C | 51% | 1022.2 hPa | 0 mm | - | 383 W/m² | - |
| 1777393040 | 16.67° C | 51% | 1022.2 hPa | 0 mm | - | 337 W/m² | - |
| 1777392735 | 16.67° C | 52% | 1022.4 hPa | 0 mm | - | 358 W/m² | - |
| 1777392431 | 17.78° C | 54% | 1022.4 hPa | 0 mm | - | 378 W/m² | - |
| 1777392127 | 17.78° C | 53% | 1022.4 hPa | 0 mm | - | 455 W/m² | - |
| 1777391822 | 17.78° C | 50% | 1022.5 hPa | 0 mm | - | 493 W/m² | - |
| 1777391518 | 18.33° C | 50% | 1022.4 hPa | 0 mm | - | 451 W/m² | - |
| 1777391214 | 18.89° C | 48% | 1022.3 hPa | 0 mm | - | 440 W/m² | - |
| 1777390910 | 18.89° C | 48% | 1022.6 hPa | 0 mm | - | 619 W/m² | - |
| 1777390607 | 18.33° C | 50% | 1022.7 hPa | 0 mm | - | 586 W/m² | - |
| 1777390304 | 17.78° C | 50% | 1022.8 hPa | 0 mm | - | 673 W/m² | - |
| 1777389999 | 18.33° C | 51% | 1022.9 hPa | 0 mm | - | 644 W/m² | - |
| 1777389696 | 17.78° C | 50% | 1022.9 hPa | 0 mm | - | 618 W/m² | - |
| 1777389393 | 17.78° C | 50% | 1022.9 hPa | 0 mm | - | 576 W/m² | - |
| 1777389091 | 17.78° C | 55% | 1023 hPa | 0 mm | - | 576 W/m² | - |
| 1777388789 | 17.78° C | 53% | 1022.9 hPa | 0 mm | - | 523 W/m² | - |
| 1777388486 | 17.22° C | 50% | 1022.9 hPa | 0 mm | - | 494 W/m² | - |
* Rain latest hour (hover to see other rain measurements)
** Current wind speed in m/s (hover to see current wind gust speed)